createdAt,value
2019-03-26T00:01:38.958Z,10.87
2019-03-26T00:04:06.880Z,2.73
2019-03-26T00:06:34.572Z,2.70
2019-03-26T00:09:03.439Z,5.57
2019-03-26T00:11:31.356Z,1.63
2019-03-26T00:13:59.308Z,2.73
2019-03-26T00:16:27.756Z,3.80
2019-03-26T00:18:55.893Z,3.43
2019-03-26T00:21:23.771Z,1.60
2019-03-26T00:23:52.006Z,4.00
2019-03-26T00:26:19.651Z,4.13
2019-03-26T00:28:47.351Z,2.60
2019-03-26T00:31:14.899Z,3.60
2019-03-26T00:33:42.344Z,1.80
2019-03-26T00:36:10.311Z,3.43
2019-03-26T00:38:37.768Z,3.03
2019-03-26T00:41:05.471Z,3.67
2019-03-26T00:43:33.499Z,4.03
2019-03-26T00:46:01.420Z,1.20
2019-03-26T00:48:29.173Z,4.00
2019-03-26T00:50:57.139Z,4.17
2019-03-26T00:53:24.991Z,5.53
2019-03-26T00:55:52.584Z,6.70
2019-03-26T00:58:20.633Z,4.00
2019-03-26T01:00:49.239Z,5.00
2019-03-26T01:03:17.003Z,4.87
2019-03-26T01:05:44.936Z,3.53
2019-03-26T01:08:12.463Z,4.40
2019-03-26T01:10:40.087Z,15.23
2019-03-26T01:13:08.476Z,6.00
2019-03-26T01:15:36.150Z,10.70
2019-03-26T01:18:03.979Z,12.63
2019-03-26T01:20:31.645Z,6.30
2019-03-26T01:22:59.174Z,5.10
2019-03-26T01:25:27.783Z,3.40
2019-03-26T01:27:55.449Z,2.13
2019-03-26T01:30:23.088Z,2.07
2019-03-26T01:32:51.950Z,4.37
2019-03-26T01:35:20.064Z,3.43
2019-03-26T01:37:48.768Z,3.83
2019-03-26T01:40:16.307Z,4.47
2019-03-26T01:42:44.512Z,4.50
2019-03-26T01:45:12.099Z,2.50
2019-03-26T01:47:40.096Z,5.90
2019-03-26T01:50:10.035Z,2.20
2019-03-26T01:52:37.671Z,4.97
2019-03-26T01:55:05.590Z,1.77
2019-03-26T01:57:33.431Z,2.60
2019-03-26T02:00:01.569Z,3.87
2019-03-26T02:02:30.326Z,9.27
2019-03-26T02:05:00.376Z,3.10
2019-03-26T02:07:27.439Z,5.83
2019-03-26T02:09:55.099Z,2.20
2019-03-26T02:12:22.816Z,2.77
2019-03-26T02:14:51.261Z,5.17
2019-03-26T02:17:19.431Z,1.93
2019-03-26T02:19:47.108Z,5.07
2019-03-26T02:22:16.128Z,1.60
2019-03-26T02:24:43.668Z,3.13
2019-03-26T02:27:11.296Z,4.50
2019-03-26T02:29:38.954Z,2.07
2019-03-26T02:32:06.937Z,2.23
2019-03-26T02:34:34.618Z,3.27
2019-03-26T02:37:02.032Z,4.57
2019-03-26T02:39:30.032Z,6.50
2019-03-26T02:41:58.032Z,4.10
2019-03-26T02:44:26.124Z,6.00
2019-03-26T02:46:53.520Z,3.27
2019-03-26T02:49:21.040Z,6.03
2019-03-26T02:51:48.600Z,3.90
2019-03-26T02:54:16.499Z,6.80
2019-03-26T02:56:44.164Z,1.57
2019-03-26T02:59:11.855Z,6.73
2019-03-26T03:01:40.269Z,3.93
2019-03-26T03:04:07.720Z,3.17
2019-03-26T03:06:35.218Z,4.77
2019-03-26T03:09:04.950Z,5.27
2019-03-26T03:11:32.512Z,6.43
2019-03-26T03:14:00.213Z,5.33
2019-03-26T03:16:28.472Z,8.43
2019-03-26T03:18:56.048Z,4.60
2019-03-26T03:21:23.845Z,5.40
2019-03-26T03:23:51.423Z,6.60
2019-03-26T03:26:45.468Z,6.40
2019-03-26T03:29:13.119Z,5.20
2019-03-26T03:31:40.716Z,5.90
2019-03-26T03:34:08.261Z,6.23
2019-03-26T03:36:35.788Z,5.30
2019-03-26T03:39:05.577Z,3.40
2019-03-26T03:41:33.381Z,3.23
2019-03-26T03:44:01.291Z,4.47
2019-03-26T03:46:29.595Z,10.40
2019-03-26T03:48:57.881Z,9.20
2019-03-26T03:51:28.378Z,6.83
2019-03-26T03:53:56.253Z,6.23
2019-03-26T03:56:25.486Z,5.80
2019-03-26T03:58:54.939Z,7.27
2019-03-26T04:01:22.796Z,4.53
2019-03-26T04:03:51.350Z,4.57
2019-03-26T04:06:19.468Z,4.27
2019-03-26T04:08:47.040Z,7.30
2019-03-26T04:11:14.476Z,4.63
2019-03-26T04:13:42.025Z,4.00
2019-03-26T04:16:09.576Z,3.60
2019-03-26T04:18:37.872Z,4.70
2019-03-26T04:21:05.390Z,7.40
2019-03-26T04:23:33.202Z,5.83
2019-03-26T04:26:00.897Z,10.00
2019-03-26T04:28:28.743Z,2.43
2019-03-26T04:30:56.181Z,10.97
2019-03-26T04:33:24.223Z,4.17
2019-03-26T04:35:51.800Z,3.97
2019-03-26T04:38:19.673Z,3.83
2019-03-26T04:40:48.296Z,3.50
2019-03-26T04:43:19.059Z,8.13
2019-03-26T04:45:46.307Z,4.63
2019-03-26T04:48:13.911Z,3.93
2019-03-26T04:50:41.776Z,5.50
2019-03-26T04:53:09.355Z,7.33
2019-03-26T04:55:37.115Z,11.50
2019-03-26T04:58:04.665Z,5.73
2019-03-26T05:00:33.027Z,3.67
2019-03-26T05:03:00.810Z,4.03
2019-03-26T05:05:28.841Z,4.90
2019-03-26T05:07:56.953Z,5.47
2019-03-26T05:10:25.115Z,9.00
2019-03-26T05:12:52.635Z,2.97
2019-03-26T05:15:20.200Z,4.87
2019-03-26T05:17:48.612Z,3.23
2019-03-26T05:20:16.963Z,4.80
2019-03-26T05:22:44.620Z,3.67
2019-03-26T05:25:12.622Z,6.00
2019-03-26T05:27:45.701Z,3.90
2019-03-26T05:30:10.477Z,3.77
2019-03-26T05:32:38.024Z,7.10
2019-03-26T05:35:06.955Z,11.13
2019-03-26T05:37:34.798Z,2.20
2019-03-26T05:40:02.507Z,5.30
2019-03-26T05:42:30.678Z,11.40
2019-03-26T05:44:58.217Z,6.37
2019-03-26T05:47:25.755Z,4.57
2019-03-26T05:49:53.710Z,9.83
2019-03-26T05:52:21.435Z,2.97
2019-03-26T05:54:48.881Z,6.07
2019-03-26T05:57:16.415Z,2.80
2019-03-26T05:59:44.099Z,7.93
2019-03-26T06:02:15.291Z,5.23
2019-03-26T06:04:42.275Z,6.57
2019-03-26T06:07:10.145Z,3.53
2019-03-26T06:09:38.067Z,4.80
2019-03-26T06:12:05.655Z,3.90
2019-03-26T06:14:34.424Z,6.43
2019-03-26T06:17:02.084Z,10.37
2019-03-26T06:19:29.631Z,7.20
2019-03-26T06:21:57.179Z,5.90
2019-03-26T06:24:24.796Z,6.70
2019-03-26T06:26:52.291Z,5.63
2019-03-26T06:29:20.232Z,5.13
2019-03-26T06:31:48.775Z,2.60
2019-03-26T06:34:16.295Z,7.43
2019-03-26T06:36:44.153Z,4.17
2019-03-26T06:39:11.888Z,7.90
2019-03-26T06:41:40.187Z,2.90
2019-03-26T06:44:07.811Z,14.83
2019-03-26T06:46:35.360Z,7.87
2019-03-26T06:49:03.179Z,5.73
2019-03-26T06:51:31.863Z,6.40
2019-03-26T06:53:59.687Z,9.17
2019-03-26T06:56:29.339Z,11.93
2019-03-26T06:58:57.099Z,14.40
2019-03-26T07:01:24.733Z,6.70
2019-03-26T07:03:52.371Z,5.97
2019-03-26T07:06:20.211Z,6.87
2019-03-26T07:08:47.840Z,8.10
2019-03-26T07:11:15.924Z,6.80
2019-03-26T07:13:43.667Z,7.97
2019-03-26T07:16:11.687Z,9.30
2019-03-26T07:18:39.324Z,11.70
2019-03-26T07:21:06.827Z,4.60
2019-03-26T07:23:34.748Z,10.90
2019-03-26T07:26:02.559Z,7.33
2019-03-26T07:28:30.320Z,9.13
2019-03-26T07:30:57.697Z,15.33
2019-03-26T07:33:25.808Z,9.20
2019-03-26T07:35:53.218Z,12.30
2019-03-26T07:38:20.919Z,9.17
2019-03-26T07:40:48.336Z,10.43
2019-03-26T07:43:16.236Z,7.07
2019-03-26T07:45:44.128Z,13.73
2019-03-26T07:48:11.688Z,9.03
2019-03-26T07:50:40.711Z,5.23
2019-03-26T07:53:08.834Z,9.03
2019-03-26T07:55:36.515Z,13.30
2019-03-26T07:58:04.456Z,10.73
2019-03-26T08:00:33.730Z,7.30
2019-03-26T08:03:01.610Z,11.50
2019-03-26T08:05:30.192Z,7.30
2019-03-26T08:07:58.939Z,11.03
2019-03-26T08:10:27.388Z,6.97
2019-03-26T08:12:55.970Z,6.40
2019-03-26T08:15:23.755Z,3.77
2019-03-26T08:17:51.256Z,11.03
2019-03-26T08:20:18.747Z,10.50
2019-03-26T08:22:46.279Z,5.83
2019-03-26T08:25:14.655Z,12.17
2019-03-26T08:27:42.236Z,7.60
2019-03-26T08:30:10.100Z,9.53
2019-03-26T08:32:38.760Z,7.47
2019-03-26T08:35:06.535Z,7.53
2019-03-26T08:37:34.085Z,11.97
2019-03-26T08:40:01.632Z,17.27
2019-03-26T08:42:30.340Z,8.80
2019-03-26T08:44:58.651Z,11.47
2019-03-26T08:47:26.736Z,6.30
2019-03-26T08:49:54.266Z,5.93
2019-03-26T08:52:21.677Z,7.93
2019-03-26T08:54:49.138Z,11.27
2019-03-26T08:57:17.265Z,14.07
2019-03-26T08:59:44.924Z,6.90
2019-03-26T09:02:12.956Z,8.10
2019-03-26T09:04:41.008Z,14.63
2019-03-26T09:07:10.939Z,8.23
2019-03-26T09:09:39.940Z,15.70
2019-03-26T09:12:07.731Z,8.90
2019-03-26T09:14:35.291Z,5.70
2019-03-26T09:17:03.035Z,13.23
2019-03-26T09:19:30.876Z,8.83
2019-03-26T09:21:58.915Z,11.50
2019-03-26T09:24:26.483Z,15.20
2019-03-26T09:26:54.895Z,17.67
2019-03-26T09:29:24.551Z,13.37
2019-03-26T09:31:51.967Z,7.80
2019-03-26T09:34:20.116Z,8.70
2019-03-26T09:36:48.664Z,12.37
2019-03-26T09:39:16.176Z,13.37
2019-03-26T09:41:43.828Z,13.23
2019-03-26T09:44:11.755Z,4.50
2019-03-26T09:46:40.001Z,5.23
2019-03-26T09:49:07.843Z,7.83
2019-03-26T09:51:35.423Z,7.77
2019-03-26T09:54:03.047Z,7.40
2019-03-26T09:56:32.130Z,7.77
2019-03-26T09:58:59.935Z,14.03
2019-03-26T10:01:27.567Z,8.63
2019-03-26T10:03:55.378Z,12.10
2019-03-26T10:06:24.020Z,11.10
2019-03-26T10:08:52.987Z,7.00
2019-03-26T10:11:21.362Z,10.13
2019-03-26T10:13:48.756Z,9.00
2019-03-26T10:16:17.176Z,11.30
2019-03-26T10:18:44.619Z,11.50
2019-03-26T10:21:12.155Z,15.00
2019-03-26T10:23:41.172Z,8.07
2019-03-26T10:26:09.188Z,15.10
2019-03-26T10:28:36.687Z,11.67
2019-03-26T10:31:05.367Z,10.30
2019-03-26T10:33:33.488Z,8.90
2019-03-26T10:36:01.768Z,8.93
2019-03-26T10:38:29.591Z,11.60
2019-03-26T10:40:56.993Z,13.53
2019-03-26T10:43:25.261Z,10.50
2019-03-26T10:45:54.023Z,7.43
2019-03-26T10:48:22.732Z,8.87
2019-03-26T10:50:50.748Z,9.53
2019-03-26T10:53:18.175Z,11.23
2019-03-26T10:55:45.707Z,10.40
2019-03-26T10:58:13.392Z,12.00
2019-03-26T11:00:42.955Z,5.40
2019-03-26T11:03:10.760Z,10.60
2019-03-26T11:05:38.727Z,6.93
2019-03-26T11:08:07.360Z,9.73
2019-03-26T11:10:35.220Z,11.73
2019-03-26T11:13:03.247Z,14.17
2019-03-26T11:15:32.000Z,4.67
2019-03-26T11:17:59.536Z,7.33
2019-03-26T11:20:27.132Z,3.80
2019-03-26T11:22:54.688Z,9.70
2019-03-26T11:25:22.690Z,9.50
2019-03-26T11:27:50.392Z,6.47
2019-03-26T11:30:19.037Z,8.87
2019-03-26T11:32:46.995Z,9.40
2019-03-26T11:35:15.292Z,14.00
2019-03-26T11:37:43.231Z,12.37
2019-03-26T11:40:14.503Z,10.23
2019-03-26T11:42:41.899Z,9.23
2019-03-26T11:45:10.103Z,13.83
2019-03-26T11:47:38.342Z,9.73
2019-03-26T11:50:08.447Z,20.83
2019-03-26T11:52:36.653Z,12.53
2019-03-26T11:55:05.859Z,15.63
2019-03-26T11:57:33.485Z,8.60
2019-03-26T12:00:01.123Z,10.57
2019-03-26T12:02:29.438Z,7.77
2019-03-26T12:04:57.491Z,9.70
2019-03-26T12:07:25.745Z,24.93
2019-03-26T12:09:53.431Z,22.17
2019-03-26T12:12:20.831Z,15.95
2019-03-26T12:14:49.383Z,10.03
2019-03-26T12:17:17.580Z,8.80
2019-03-26T12:19:47.576Z,6.30
2019-03-26T12:22:15.113Z,9.10
2019-03-26T12:24:42.838Z,10.00
2019-03-26T12:27:10.828Z,7.87
2019-03-26T12:29:38.805Z,8.40
2019-03-26T12:32:06.360Z,7.70
2019-03-26T12:34:33.765Z,13.30
2019-03-26T12:37:01.567Z,8.93
2019-03-26T12:39:29.684Z,10.50
2019-03-26T12:41:58.448Z,11.17
2019-03-26T12:44:27.855Z,13.70
2019-03-26T12:46:58.244Z,9.23
2019-03-26T12:49:26.021Z,11.43
2019-03-26T12:51:54.072Z,11.83
2019-03-26T12:54:22.063Z,4.77
2019-03-26T12:56:50.827Z,7.27
2019-03-26T12:59:18.617Z,11.90
2019-03-26T13:01:46.195Z,6.60
2019-03-26T13:04:16.760Z,13.70
2019-03-26T13:06:43.304Z,8.30
2019-03-26T13:09:11.500Z,7.73
2019-03-26T13:11:39.587Z,8.53
2019-03-26T13:14:07.854Z,8.00
2019-03-26T13:16:35.791Z,7.23
2019-03-26T13:19:05.863Z,7.67
2019-03-26T13:21:37.403Z,10.73
2019-03-26T13:24:04.208Z,7.00
2019-03-26T13:26:32.234Z,5.60
2019-03-26T13:29:00.086Z,6.80
2019-03-26T13:31:27.916Z,57.20
2019-03-26T13:33:55.488Z,15.73
2019-03-26T13:36:23.060Z,10.30
2019-03-26T13:38:50.883Z,6.40
2019-03-26T13:41:18.404Z,10.17
2019-03-26T13:43:45.954Z,6.57
2019-03-26T13:46:13.740Z,9.07
2019-03-26T13:48:41.367Z,4.47
2019-03-26T13:51:10.142Z,9.50
2019-03-26T13:53:37.695Z,3.10
2019-03-26T13:56:05.367Z,7.00
2019-03-26T13:58:34.599Z,13.30
2019-03-26T14:01:02.666Z,7.40
2019-03-26T14:03:30.524Z,3.40
2019-03-26T14:05:58.042Z,4.03
2019-03-26T14:08:26.073Z,5.07
2019-03-26T14:10:53.603Z,5.63
2019-03-26T14:13:21.004Z,6.60
2019-03-26T14:15:50.047Z,7.60
2019-03-26T14:18:17.710Z,5.53
2019-03-26T14:20:45.331Z,4.50
2019-03-26T14:23:13.496Z,3.40
2019-03-26T14:25:41.723Z,7.17
2019-03-26T14:28:09.451Z,7.90
2019-03-26T14:30:41.777Z,2.97
2019-03-26T14:33:09.624Z,4.43
2019-03-26T14:35:37.291Z,6.13
2019-03-26T14:38:05.725Z,4.73
2019-03-26T14:40:33.904Z,3.77
2019-03-26T14:43:01.648Z,6.57
2019-03-26T14:45:29.484Z,7.27
2019-03-26T14:47:57.964Z,13.00
2019-03-26T14:50:25.615Z,4.30
2019-03-26T14:52:53.154Z,4.60
2019-03-26T14:55:20.943Z,5.13
2019-03-26T14:57:48.928Z,8.07
2019-03-26T15:00:16.567Z,6.53
2019-03-26T15:02:44.879Z,11.07
2019-03-26T15:05:12.655Z,5.60
2019-03-26T15:07:40.861Z,3.10
2019-03-26T15:10:08.834Z,7.10
2019-03-26T15:12:36.587Z,6.43
2019-03-26T15:15:05.329Z,5.87
2019-03-26T15:17:32.939Z,7.90
2019-03-26T15:20:00.498Z,2.80
2019-03-26T15:22:29.459Z,6.53
2019-03-26T15:24:59.499Z,3.47
2019-03-26T15:27:26.587Z,6.80
2019-03-26T15:29:54.537Z,4.47
2019-03-26T15:32:22.500Z,7.47
2019-03-26T15:34:50.059Z,10.67
2019-03-26T15:37:18.703Z,8.77
2019-03-26T15:39:46.404Z,8.47
2019-03-26T15:42:14.375Z,7.90
2019-03-26T15:44:43.227Z,8.90
2019-03-26T15:47:10.885Z,9.07
2019-03-26T15:49:38.749Z,6.27
2019-03-26T15:52:06.867Z,7.57
2019-03-26T15:54:34.760Z,6.80
2019-03-26T15:57:02.323Z,20.17
2019-03-26T15:59:29.891Z,29.00
2019-03-26T16:01:58.202Z,12.27
2019-03-26T16:04:25.789Z,7.47
2019-03-26T16:06:53.487Z,7.80
2019-03-26T16:09:21.091Z,7.80
2019-03-26T16:11:48.629Z,12.47
2019-03-26T16:14:18.099Z,9.57
2019-03-26T16:16:45.647Z,5.03
2019-03-26T16:19:13.387Z,5.77
2019-03-26T16:21:41.127Z,6.47
2019-03-26T16:24:09.483Z,15.20
2019-03-26T16:26:37.061Z,5.07
2019-03-26T16:29:04.737Z,11.03
2019-03-26T16:31:33.387Z,8.93
2019-03-26T16:34:01.039Z,4.70
2019-03-26T16:36:28.575Z,13.60
2019-03-26T16:38:56.275Z,15.03
2019-03-26T16:41:24.724Z,4.43
2019-03-26T16:43:52.148Z,8.07
2019-03-26T16:46:19.827Z,9.17
2019-03-26T16:48:47.527Z,7.57
2019-03-26T16:51:16.527Z,6.30
2019-03-26T16:53:44.608Z,5.43
2019-03-26T16:56:12.243Z,9.80
2019-03-26T16:58:41.968Z,2.60
2019-03-26T17:01:10.079Z,5.37
2019-03-26T17:03:37.982Z,12.30
2019-03-26T17:06:07.594Z,12.77
2019-03-26T17:08:35.243Z,12.23
2019-03-26T17:11:03.374Z,8.27
2019-03-26T17:13:30.880Z,7.77
2019-03-26T17:15:58.540Z,18.17
2019-03-26T17:18:26.223Z,9.57
2019-03-26T17:20:54.607Z,13.70
2019-03-26T17:23:22.583Z,7.30
2019-03-26T17:25:50.344Z,6.47
2019-03-26T17:28:18.508Z,6.57
2019-03-26T17:30:46.556Z,8.80
2019-03-26T17:33:14.252Z,11.07
2019-03-26T17:35:43.530Z,16.30
2019-03-26T17:38:11.202Z,6.37
2019-03-26T17:40:38.834Z,14.10
2019-03-26T17:43:06.701Z,7.70
2019-03-26T17:45:34.100Z,14.03
2019-03-26T17:48:01.861Z,8.60
2019-03-26T17:50:30.223Z,8.17
2019-03-26T17:52:57.773Z,8.80
2019-03-26T17:55:25.464Z,7.80
2019-03-26T17:57:53.053Z,10.20
2019-03-26T18:00:35.947Z,9.63
2019-03-26T18:03:03.581Z,8.20
2019-03-26T18:05:31.102Z,8.07
2019-03-26T18:07:58.875Z,10.53
2019-03-26T18:10:27.161Z,9.03
2019-03-26T18:12:54.807Z,9.13
2019-03-26T18:15:22.305Z,8.30
2019-03-26T18:17:50.187Z,25.23
2019-03-26T18:20:31.571Z,28.67
2019-03-26T18:22:47.599Z,15.68
2019-03-26T18:25:15.163Z,51.07
2019-03-26T18:27:43.028Z,15.03
2019-03-26T18:30:11.369Z,7.03
2019-03-26T18:32:39.032Z,11.70
2019-03-26T18:35:07.284Z,7.03
2019-03-26T18:37:34.983Z,5.20
2019-03-26T18:40:03.179Z,10.77
2019-03-26T18:42:43.144Z,6.60
2019-03-26T18:45:00.390Z,8.50
2019-03-26T18:47:28.195Z,6.50
2019-03-26T18:49:56.124Z,10.00
2019-03-26T18:52:24.540Z,4.90
2019-03-26T18:54:53.008Z,13.87
2019-03-26T18:57:20.587Z,11.40
2019-03-26T18:59:48.331Z,7.67
2019-03-26T19:02:16.107Z,7.50
2019-03-26T19:04:44.092Z,17.93
2019-03-26T19:07:12.884Z,7.63
2019-03-26T19:09:40.448Z,9.87
2019-03-26T19:12:08.284Z,7.13
2019-03-26T19:14:37.167Z,5.70
2019-03-26T19:17:05.448Z,5.93
2019-03-26T19:19:34.467Z,15.07
2019-03-26T19:22:02.579Z,13.27
2019-03-26T19:24:30.116Z,27.97
2019-03-26T19:26:58.572Z,20.07
2019-03-26T19:29:26.216Z,12.03
2019-03-26T19:31:53.735Z,13.73
2019-03-26T19:34:21.636Z,7.10
2019-03-26T19:36:49.672Z,10.37
2019-03-26T19:39:17.223Z,15.90
2019-03-26T19:41:45.779Z,10.87
2019-03-26T19:44:13.807Z,7.53
2019-03-26T19:46:41.448Z,9.73
2019-03-26T19:49:09.244Z,14.27
2019-03-26T19:51:37.082Z,11.03
2019-03-26T19:54:05.019Z,11.17
2019-03-26T19:56:32.917Z,10.20
2019-03-26T19:59:00.639Z,11.57
2019-03-26T20:01:28.203Z,18.30
2019-03-26T20:03:55.847Z,17.90
2019-03-26T20:06:24.382Z,13.20
2019-03-26T20:08:52.260Z,12.63
2019-03-26T20:11:19.834Z,11.80
2019-03-26T20:13:47.467Z,11.33
2019-03-26T20:16:15.063Z,16.60
2019-03-26T20:18:43.594Z,11.63
2019-03-26T20:21:11.991Z,18.57
2019-03-26T20:23:39.917Z,18.57
2019-03-26T20:26:07.724Z,18.07
2019-03-26T20:28:36.652Z,12.30
2019-03-26T20:31:04.352Z,16.30
2019-03-26T20:33:32.123Z,18.00
2019-03-26T20:36:01.478Z,16.23
2019-03-26T20:38:29.600Z,10.67
2019-03-26T20:40:58.238Z,12.07
2019-03-26T20:43:37.140Z,15.70
2019-03-26T20:45:57.975Z,14.83
2019-03-26T20:48:25.443Z,23.00
2019-03-26T20:50:52.976Z,14.60
2019-03-26T20:53:21.576Z,28.47
2019-03-26T20:55:54.615Z,15.20
2019-03-26T20:58:19.448Z,18.40
2019-03-26T21:00:48.335Z,16.10
2019-03-26T21:03:15.979Z,17.10
2019-03-26T21:05:43.546Z,22.57
2019-03-26T21:08:11.839Z,17.23
2019-03-26T21:10:39.523Z,22.30
2019-03-26T21:13:07.675Z,19.60
2019-03-26T21:15:35.659Z,20.30
2019-03-26T21:18:03.667Z,20.53
2019-03-26T21:20:31.405Z,18.47
2019-03-26T21:22:59.795Z,22.03
2019-03-26T21:25:28.796Z,25.37
2019-03-26T21:27:56.469Z,20.57
2019-03-26T21:30:25.309Z,21.47
2019-03-26T21:32:53.473Z,25.93
2019-03-26T21:35:21.124Z,25.07
2019-03-26T21:37:48.644Z,25.70
2019-03-26T21:40:16.764Z,25.83
2019-03-26T21:42:44.191Z,24.97
2019-03-26T21:45:14.112Z,32.87
2019-03-26T21:47:42.007Z,25.00
2019-03-26T21:50:11.627Z,24.20
2019-03-26T21:52:39.043Z,18.40
2019-03-26T21:55:07.716Z,22.03
2019-03-26T21:57:35.907Z,24.73
2019-03-26T22:00:05.504Z,27.10
2019-03-26T22:02:33.159Z,21.03
2019-03-26T22:05:01.153Z,18.27
2019-03-26T22:07:29.236Z,13.80
2019-03-26T22:09:56.723Z,14.90
2019-03-26T22:12:25.127Z,20.37
2019-03-26T22:14:52.616Z,19.50
2019-03-26T22:17:21.736Z,18.87
2019-03-26T22:19:49.171Z,18.90
2019-03-26T22:22:16.746Z,17.97
2019-03-26T22:24:44.383Z,22.80
2019-03-26T22:27:12.287Z,26.67
2019-03-26T22:29:40.832Z,22.43
2019-03-26T22:32:08.359Z,22.13
2019-03-26T22:34:35.991Z,20.00
2019-03-26T22:37:03.556Z,24.20
2019-03-26T22:39:32.102Z,25.47
2019-03-26T22:41:59.621Z,21.63
2019-03-26T22:44:31.716Z,20.77
2019-03-26T22:46:57.061Z,22.80
2019-03-26T22:49:24.763Z,23.77
2019-03-26T22:51:52.553Z,24.30
2019-03-26T22:54:20.520Z,24.30
2019-03-26T22:56:48.203Z,16.13
2019-03-26T22:59:15.752Z,21.83
2019-03-26T23:01:43.380Z,19.30
2019-03-26T23:04:11.484Z,19.00
2019-03-26T23:06:39.178Z,16.27
2019-03-26T23:09:06.763Z,18.43
2019-03-26T23:11:34.676Z,17.10
2019-03-26T23:14:02.299Z,16.50
2019-03-26T23:16:29.951Z,15.00
2019-03-26T23:18:57.695Z,18.60
2019-03-26T23:21:25.908Z,22.40
2019-03-26T23:23:54.189Z,18.47
2019-03-26T23:26:22.308Z,20.47
2019-03-26T23:28:50.278Z,18.13
2019-03-26T23:31:18.389Z,17.63
2019-03-26T23:33:46.859Z,19.83
2019-03-26T23:36:15.719Z,20.77
2019-03-26T23:38:44.615Z,12.13
2019-03-26T23:41:12.151Z,18.63
2019-03-26T23:43:39.855Z,22.17
2019-03-26T23:46:07.350Z,16.50
2019-03-26T23:48:34.907Z,19.97
2019-03-26T23:51:02.843Z,16.30
2019-03-26T23:53:30.559Z,15.90
2019-03-26T23:55:58.182Z,17.40
2019-03-26T23:58:26.063Z,17.93
